Time;durP1;ratioP1;P1;durP2;ratioP2;P2;SDS_P1;SDS_P2;PMS_P1;PMS_P2;Temp;Humidity;BMP_temperature;BMP_pressure;BME280_temperature;BME280_humidity;BME280_pressure;Samples;Min_cycle;Max_cycle;Signal;HPM_P1;HPM_P2
2022/07/31 00:00:25;;;;;;;3.80;1.23;;;21.40;80.20;;;;;;2104450;28;20552;-87
2022/07/31 00:01:26;;;;;;;1.87;1.40;;;21.40;80.10;;;;;;2096113;28;20032;-87
2022/07/31 00:02:27;;;;;;;2.23;1.10;;;21.40;79.90;;;;;;2083726;28;20021;-87
2022/07/31 00:03:28;;;;;;;1.53;1.10;;;21.40;80.10;;;;;;2075357;28;20026;-87
2022/07/31 00:04:28;;;;;;;1.20;1.10;;;21.40;80.20;;;;;;2091416;28;20401;-88
2022/07/31 00:05:30;;;;;;;1.63;1.30;;;21.40;80.20;;;;;;2105978;28;20032;-87
2022/07/31 00:06:30;;;;;;;3.50;1.33;;;21.30;80.10;;;;;;2096388;28;20086;-87
2022/07/31 00:07:31;;;;;;;5.00;2.20;;;21.30;80.10;;;;;;2089965;28;20029;-87
2022/07/31 00:08:32;;;;;;;3.10;1.33;;;21.30;80.10;;;;;;2087105;28;20029;-87
2022/07/31 00:09:33;;;;;;;3.53;1.65;;;21.40;79.90;;;;;;2082100;28;20111;-87
2022/07/31 00:10:34;;;;;;;2.70;1.30;;;21.30;80.10;;;;;;2080884;28;20502;-88
2022/07/31 00:11:35;;;;;;;1.70;1.20;;;21.40;80.20;;;;;;2080928;28;20033;-88
2022/07/31 00:12:36;;;;;;;2.33;1.53;;;21.40;80.20;;;;;;2090753;28;20048;-87
2022/07/31 00:13:37;;;;;;;1.77;1.47;;;21.30;80.20;;;;;;2088735;28;20021;-87
2022/07/31 00:14:38;;;;;;;3.20;1.70;;;21.30;80.30;;;;;;2082810;28;20287;-88
2022/07/31 00:15:38;;;;;;;2.27;1.63;;;21.30;80.30;;;;;;2086947;28;20037;-88
2022/07/31 00:16:39;;;;;;;2.20;1.60;;;21.30;80.20;;;;;;2097190;28;20068;-88
2022/07/31 00:17:41;;;;;;;2.73;1.70;;;21.30;80.20;;;;;;2087819;28;20026;-88
2022/07/31 00:18:42;;;;;;;2.03;1.70;;;21.40;80.00;;;;;;2081647;28;20034;-88
2022/07/31 00:19:42;;;;;;;2.10;1.70;;;21.40;80.00;;;;;;2075201;28;20068;-88
2022/07/31 00:20:43;;;;;;;3.53;1.80;;;21.40;80.10;;;;;;2082162;28;20040;-87
2022/07/31 00:21:44;;;;;;;2.43;1.77;;;21.40;79.90;;;;;;2097820;28;20029;-88
2022/07/31 00:22:47;;;;;;;1.93;1.60;;;21.40;79.90;;;;;;2080830;28;20037;-87
2022/07/31 00:23:48;;;;;;;2.13;1.52;;;21.40;79.90;;;;;;2084199;28;20030;-87
2022/07/31 00:24:49;;;;;;;4.00;1.80;;;21.40;79.80;;;;;;2091664;28;20025;-88
2022/07/31 00:25:49;;;;;;;1.70;1.50;;;21.40;79.70;;;;;;2089812;28;20025;-88
2022/07/31 00:26:50;;;;;;;4.13;2.97;;;21.40;79.80;;;;;;2085492;28;20059;-87
2022/07/31 00:27:51;;;;;;;2.00;1.60;;;21.40;79.70;;;;;;2103683;28;20020;-87
2022/07/31 00:28:52;;;;;;;2.47;1.65;;;21.40;79.70;;;;;;2081886;28;20418;-88
2022/07/31 00:29:53;;;;;;;3.07;1.50;;;21.40;79.70;;;;;;2089725;28;20056;-88
2022/07/31 00:30:53;;;;;;;3.27;1.50;;;21.40;79.70;;;;;;2091583;28;20064;-87
2022/07/31 00:31:55;;;;;;;1.70;1.20;;;21.40;79.80;;;;;;2082764;28;20079;-88
2022/07/31 00:32:56;;;;;;;2.00;1.27;;;21.40;79.80;;;;;;2079479;28;20017;-88
2022/07/31 00:33:57;;;;;;;1.63;1.30;;;21.40;79.70;;;;;;2092136;28;20055;-86
2022/07/31 00:34:57;;;;;;;2.47;1.43;;;21.40;79.90;;;;;;2088485;28;20017;-87
2022/07/31 00:35:58;;;;;;;1.57;1.17;;;21.30;79.80;;;;;;2081530;28;20026;-87
2022/07/31 00:36:59;;;;;;;1.77;1.17;;;21.30;80.00;;;;;;2091294;28;20106;-88
2022/07/31 00:38:00;;;;;;;1.57;1.20;;;21.30;80.00;;;;;;2088354;28;20452;-88
2022/07/31 00:39:01;;;;;;;1.40;0.97;;;21.30;79.90;;;;;;2085989;28;20470;-87
2022/07/31 00:40:04;;;;;;;1.40;1.13;;;21.30;80.10;;;;;;2090632;28;20127;-86
2022/07/31 00:41:05;;;;;;;1.95;1.30;;;21.30;79.80;;;;;;2088129;28;20033;-87
2022/07/31 00:42:16;;;;;;;2.40;1.33;;;21.30;79.90;;;;;;2097097;28;20056;-87
2022/07/31 00:43:17;;;;;;;2.35;1.33;;;21.30;79.90;;;;;;2088159;28;20099;-87
2022/07/31 00:44:18;;;;;;;2.83;1.17;;;21.30;79.90;;;;;;2095435;28;20417;-86
2022/07/31 00:45:19;;;;;;;1.63;1.17;;;21.30;79.80;;;;;;2083259;28;20037;-87
2022/07/31 00:46:20;;;;;;;1.73;1.30;;;21.30;80.00;;;;;;2072555;28;20040;-87
2022/07/31 00:47:21;;;;;;;1.40;1.30;;;21.30;79.80;;;;;;2073520;28;20037;-86
2022/07/31 00:48:22;;;;;;;1.93;1.37;;;21.30;79.90;;;;;;2091279;28;20276;-86
2022/07/31 00:49:23;;;;;;;3.58;1.70;;;21.30;79.90;;;;;;2093557;28;20037;-87
2022/07/31 00:50:24;;;;;;;2.08;1.50;;;21.30;80.00;;;;;;2089752;28;20032;-86
2022/07/31 00:51:24;;;;;;;1.63;1.30;;;21.30;80.00;;;;;;2092987;28;20100;-87
2022/07/31 00:52:25;;;;;;;3.40;1.70;;;21.30;79.90;;;;;;2082288;28;20431;-87
2022/07/31 00:53:26;;;;;;;1.77;1.57;;;21.30;79.90;;;;;;2074878;28;20096;-87
2022/07/31 00:54:27;;;;;;;3.05;1.25;;;21.20;79.90;;;;;;2077373;28;20121;-87
2022/07/31 00:55:28;;;;;;;2.47;1.50;;;21.30;79.90;;;;;;2080990;28;20482;-87
2022/07/31 00:56:29;;;;;;;2.55;1.50;;;21.20;79.90;;;;;;2094268;28;20107;-87
2022/07/31 00:57:30;;;;;;;1.80;1.40;;;21.30;79.80;;;;;;2086968;28;20040;-87
2022/07/31 00:58:31;;;;;;;1.87;1.53;;;21.20;79.90;;;;;;2073927;28;20049;-87
2022/07/31 00:59:32;;;;;;;1.63;1.40;;;21.20;79.90;;;;;;2073347;28;20104;-87
2022/07/31 01:00:33;;;;;;;2.85;1.60;;;21.30;79.90;;;;;;2083305;28;20026;-87
2022/07/31 01:01:33;;;;;;;1.83;1.50;;;21.20;79.80;;;;;;2087364;28;20032;-87
2022/07/31 01:02:36;;;;;;;1.60;1.40;;;21.30;79.70;;;;;;2093810;28;20035;-88
2022/07/31 01:03:37;;;;;;;2.78;1.40;;;21.30;79.80;;;;;;2089585;28;20501;-87
2022/07/31 01:04:38;;;;;;;1.90;1.33;;;21.30;79.80;;;;;;2083073;28;20037;-87
2022/07/31 01:05:40;;;;;;;1.97;1.37;;;21.30;79.80;;;;;;2091141;28;20080;-87
2022/07/31 01:06:41;;;;;;;;;;;21.30;79.70;;;;;;2092244;28;20021;-87
2022/07/31 01:07:41;;;;;;;1.95;1.45;;;21.30;79.60;;;;;;2090867;28;19936;-87
2022/07/31 01:08:42;;;;;;;2.83;1.60;;;21.30;79.70;;;;;;2090094;28;20029;-87
2022/07/31 01:09:46;;;;;;;2.53;1.40;;;21.30;79.60;;;;;;2092852;28;20351;-87
2022/07/31 01:11:07;;;;;;;3.20;1.80;;;21.30;79.70;;;;;;2094259;28;20029;-87
2022/07/31 01:12:28;;;;;;;2.22;1.67;;;21.30;79.70;;;;;;2098253;28;20391;-87
2022/07/31 01:13:36;;;;;;;1.95;1.45;;;21.30;79.80;;;;;;2098969;28;20265;-87
2022/07/31 01:14:42;;;;;;;4.72;1.90;;;21.30;79.90;;;;;;2089325;28;20246;-87
2022/07/31 01:15:44;;;;;;;3.88;1.75;;;21.30;80.60;;;;;;2075378;28;20270;-87
2022/07/31 01:16:50;;;;;;;2.55;1.30;;;21.30;79.90;;;;;;2085802;28;20455;-87
2022/07/31 01:17:53;;;;;;;5.13;1.67;;;21.20;79.90;;;;;;2074225;28;20444;-87
2022/07/31 01:18:56;;;;;;;2.90;1.70;;;21.20;80.10;;;;;;2081836;28;20269;-87
2022/07/31 01:19:57;;;;;;;3.45;1.88;;;21.20;80.30;;;;;;2087469;28;20299;-87
2022/07/31 01:21:03;;;;;;;2.08;1.60;;;21.30;80.20;;;;;;2085556;28;20357;-87
2022/07/31 01:22:13;;;;;;;3.00;1.75;;;21.20;80.10;;;;;;2093236;28;20359;-87
2022/07/31 01:23:32;;;;;;;3.33;1.73;;;21.20;80.10;;;;;;2083401;28;20266;-87
2022/07/31 01:25:04;;;;;;;2.58;1.52;;;21.20;80.10;;;;;;2091645;28;20479;-87
2022/07/31 01:26:29;;;;;;;2.22;1.48;;;21.20;80.40;;;;;;2091148;28;20257;-87
2022/07/31 01:27:54;;;;;;;;;;;21.30;80.30;;;;;;2091614;28;20261;-87
2022/07/31 01:29:30;;;;;;;2.90;1.70;;;21.20;80.30;;;;;;2091174;28;19908;-87
2022/07/31 01:30:44;;;;;;;4.97;1.42;;;21.20;80.20;;;;;;2070976;28;20255;-88
2022/07/31 01:31:52;;;;;;;4.40;1.90;;;21.20;80.20;;;;;;2078071;28;20267;-88
2022/07/31 01:33:00;;;;;;;4.20;2.20;;;21.20;80.30;;;;;;2092294;28;20254;-88
2022/07/31 01:34:23;;;;;;;4.57;1.60;;;21.20;80.30;;;;;;2097411;28;20643;-88
2022/07/31 01:35:26;;;;;;;;;;;21.20;80.40;;;;;;2089842;28;20309;-88
2022/07/31 01:36:33;;;;;;;5.78;1.98;;;21.20;80.40;;;;;;2088873;28;19915;-88
2022/07/31 01:37:49;;;;;;;3.83;1.30;;;21.20;80.50;;;;;;2084770;28;20029;-88
2022/07/31 01:38:53;;;;;;;3.80;2.05;;;21.20;80.40;;;;;;2090950;28;20282;-87
2022/07/31 01:40:05;;;;;;;4.40;2.20;;;21.20;80.40;;;;;;2083402;28;20254;-87
2022/07/31 01:41:09;;;;;;;6.70;1.92;;;21.20;80.40;;;;;;2088079;28;20262;-87
2022/07/31 01:42:15;;;;;;;5.22;2.20;;;21.20;80.50;;;;;;2091559;28;20276;-87
2022/07/31 01:43:24;;;;;;;6.07;2.40;;;21.20;80.60;;;;;;2085647;28;20265;-87
2022/07/31 01:44:26;;;;;;;6.13;2.05;;;21.20;80.60;;;;;;2083140;28;20262;-88
2022/07/31 01:45:29;;;;;;;4.78;2.20;;;21.20;80.60;;;;;;2090980;28;20331;-87
2022/07/31 01:46:33;;;;;;;6.45;2.22;;;21.20;80.70;;;;;;2098019;28;20735;-86
2022/07/31 01:47:35;;;;;;;7.65;2.08;;;21.20;80.80;;;;;;2087483;28;20309;-87
2022/07/31 01:48:37;;;;;;;;;;;21.10;80.80;;;;;;2091573;28;20277;-87
2022/07/31 01:49:40;;;;;;;2.85;1.50;;;21.20;80.70;;;;;;2089537;28;20561;-87
2022/07/31 01:50:43;;;;;;;7.03;2.22;;;21.20;80.80;;;;;;2091317;28;20262;-87
2022/07/31 01:51:46;;;;;;;3.80;1.70;;;21.20;80.60;;;;;;2082258;28;20621;-86
2022/07/31 01:52:49;;;;;;;4.03;1.60;;;21.20;80.60;;;;;;2093550;28;20595;-87
2022/07/31 01:53:53;;;;;;;3.72;1.80;;;21.20;80.50;;;;;;2090807;28;20258;-87
2022/07/31 01:54:55;;;;;;;5.00;1.70;;;21.20;80.60;;;;;;2091186;28;20254;-87
2022/07/31 01:55:58;;;;;;;3.17;1.60;;;21.20;80.70;;;;;;2089430;28;20261;-88
2022/07/31 01:57:02;;;;;;;3.78;1.88;;;21.20;80.70;;;;;;2085533;28;20258;-87
2022/07/31 01:58:04;;;;;;;3.42;1.55;;;21.20;80.50;;;;;;2078434;28;20759;-88
2022/07/31 01:59:08;;;;;;;4.45;2.13;;;21.10;80.40;;;;;;2085873;28;20696;-87
2022/07/31 02:00:24;;;;;;;3.33;1.75;;;21.20;80.50;;;;;;2078602;28;20290;-87
2022/07/31 02:01:27;;;;;;;6.97;1.70;;;21.20;80.60;;;;;;2073466;28;20649;-88
2022/07/31 02:02:30;;;;;;;5.40;1.90;;;21.20;80.40;;;;;;2086535;28;20491;-87
2022/07/31 02:03:32;;;;;;;7.63;1.90;;;21.20;80.40;;;;;;2083964;28;20354;-87
2022/07/31 02:04:35;;;;;;;3.92;1.88;;;21.20;80.50;;;;;;2093775;28;20085;-87
2022/07/31 02:05:39;;;;;;;4.55;1.60;;;21.20;80.50;;;;;;2104496;28;20676;-88
2022/07/31 02:06:42;;;;;;;4.55;1.83;;;21.20;80.50;;;;;;2086588;28;20765;-88
2022/07/31 02:07:45;;;;;;;3.47;1.75;;;21.20;80.40;;;;;;2079751;28;20273;-87
2022/07/31 02:08:49;;;;;;;5.28;1.85;;;21.20;80.40;;;;;;2071142;28;20326;-87
2022/07/31 02:09:53;;;;;;;4.95;1.75;;;21.20;80.30;;;;;;2080238;28;20283;-88
2022/07/31 02:10:59;;;;;;;4.28;1.80;;;21.10;80.30;;;;;;2094869;28;20269;-88
2022/07/31 02:12:01;;;;;;;3.88;1.95;;;21.20;80.40;;;;;;2089433;28;20258;-87
2022/07/31 02:13:04;;;;;;;5.30;2.00;;;21.10;80.20;;;;;;2086167;28;20281;-88
2022/07/31 02:14:05;;;;;;;4.28;1.90;;;21.20;80.20;;;;;;2081326;28;20271;-87
2022/07/31 02:15:12;;;;;;;4.47;1.95;;;21.20;80.90;;;;;;2077207;28;20014;-87
2022/07/31 02:16:17;;;;;;;3.92;2.30;;;21.20;80.00;;;;;;2091424;28;20261;-87
2022/07/31 02:17:19;;;;;;;3.67;2.05;;;21.20;79.90;;;;;;2101360;28;20257;-87
2022/07/31 02:18:43;;;;;;;2.63;1.95;;;21.20;79.90;;;;;;2092350;28;20299;-88
2022/07/31 02:19:53;;;;;;;6.13;2.03;;;21.20;79.70;;;;;;2092077;28;20329;-88
2022/07/31 02:20:54;;;;;;;;;;;21.20;79.70;;;;;;2094688;28;20090;-88
2022/07/31 02:21:55;;;;;;;2.60;1.70;;;21.10;79.80;;;;;;2093270;28;19931;-89
2022/07/31 02:22:57;;;;;;;4.73;2.00;;;21.10;79.70;;;;;;2083372;28;20029;-87
2022/07/31 02:23:58;;;;;;;4.53;1.80;;;21.10;79.70;;;;;;2089847;28;20075;-87
2022/07/31 02:24:59;;;;;;;3.53;2.00;;;21.10;79.70;;;;;;2095104;28;20265;-87
2022/07/31 02:26:02;;;;;;;3.67;1.98;;;21.10;79.60;;;;;;2098508;28;20055;-87
2022/07/31 02:27:04;;;;;;;4.72;2.67;;;21.10;79.70;;;;;;2085445;28;20067;-88
2022/07/31 02:28:09;;;;;;;4.38;1.70;;;21.10;79.50;;;;;;2076130;28;20751;-88
2022/07/31 02:29:11;;;;;;;3.53;2.00;;;21.10;79.40;;;;;;2084044;28;20034;-88
2022/07/31 02:30:14;;;;;;;4.00;2.03;;;21.10;79.50;;;;;;2075468;28;20295;-87
2022/07/31 02:31:17;;;;;;;4.40;2.17;;;21.10;79.40;;;;;;2086652;28;20778;-87
2022/07/31 02:32:21;;;;;;;3.35;1.83;;;21.10;79.30;;;;;;2093541;28;20262;-87
2022/07/31 02:33:25;;;;;;;4.32;2.10;;;21.10;79.20;;;;;;2084442;28;20025;-88
2022/07/31 02:34:27;;;;;;;4.07;2.00;;;21.10;79.40;;;;;;2086905;28;20298;-87
2022/07/31 02:35:29;;;;;;;2.95;1.60;;;21.10;79.40;;;;;;2089435;28;20700;-87
2022/07/31 02:36:33;;;;;;;3.60;2.00;;;21.10;79.30;;;;;;2097902;28;20268;-88
2022/07/31 02:37:37;;;;;;;5.30;2.30;;;21.10;79.30;;;;;;2084779;28;20298;-87
2022/07/31 02:38:38;;;;;;;4.93;2.28;;;21.10;79.10;;;;;;2083265;28;20029;-90
2022/07/31 02:39:41;;;;;;;3.05;1.70;;;21.10;79.10;;;;;;2081424;28;20274;-87
2022/07/31 02:40:42;;;;;;;2.53;1.70;;;21.10;79.20;;;;;;2074155;28;20730;-90
2022/07/31 02:41:44;;;;;;;3.05;1.80;;;21.10;79.20;;;;;;2075849;28;20034;-89
2022/07/31 02:42:45;;;;;;;3.83;1.95;;;21.10;78.90;;;;;;2083381;28;20025;-89
2022/07/31 02:43:47;;;;;;;3.92;2.00;;;21.10;78.80;;;;;;2076955;28;20491;-89
2022/07/31 02:45:00;;;;;;;4.88;2.15;;;21.10;79.00;;;;;;2076393;28;20021;-87
2022/07/31 02:46:03;;;;;;;2.35;1.88;;;21.10;78.90;;;;;;2086677;28;20025;-88
2022/07/31 02:47:05;;;;;;;4.10;1.92;;;21.10;78.90;;;;;;2081846;28;20259;-88
2022/07/31 02:48:08;;;;;;;6.22;2.00;;;21.10;79.00;;;;;;2082526;28;20262;-88
2022/07/31 02:49:13;;;;;;;1.83;1.33;;;21.00;78.90;;;;;;2078439;28;20258;-87
2022/07/31 02:50:16;;;;;;;3.95;1.90;;;21.00;78.90;;;;;;2084765;28;20289;-88
2022/07/31 02:51:17;;;;;;;4.50;2.42;;;21.10;78.90;;;;;;2098168;28;20257;-88
2022/07/31 02:52:18;;;;;;;5.95;2.10;;;21.00;78.90;;;;;;2090388;28;20079;-89
2022/07/31 02:53:20;;;;;;;3.53;1.80;;;21.00;78.80;;;;;;2078831;28;20034;-90
2022/07/31 02:54:23;;;;;;;3.38;1.80;;;21.00;78.80;;;;;;2078528;28;20487;-88
2022/07/31 02:55:25;;;;;;;2.85;1.95;;;21.00;78.90;;;;;;2075759;28;20471;-90
2022/07/31 02:56:29;;;;;;;3.13;1.98;;;21.00;78.90;;;;;;2077383;28;20069;-91
2022/07/31 02:57:30;;;;;;;4.28;1.83;;;21.00;78.90;;;;;;2091366;28;20454;-90
2022/07/31 02:58:31;;;;;;;3.30;1.85;;;21.00;78.80;;;;;;2093119;28;20364;-92
2022/07/31 02:59:36;;;;;;;2.80;1.83;;;21.00;78.90;;;;;;2097271;28;20043;-91
2022/07/31 03:00:37;;;;;;;5.95;2.05;;;21.00;78.80;;;;;;2084701;28;20415;-90
2022/07/31 03:01:37;;;;;;;3.50;1.93;;;21.00;78.80;;;;;;2082901;28;20293;-89
2022/07/31 03:02:41;;;;;;;3.50;1.58;;;21.00;78.90;;;;;;2074124;28;20033;-90
2022/07/31 03:03:42;;;;;;;;;;;21.00;78.80;;;;;;2082167;28;20254;-90
2022/07/31 03:04:44;;;;;;;2.38;1.40;;;21.00;78.70;;;;;;2079317;28;19905;-89
2022/07/31 03:05:45;;;;;;;3.53;1.60;;;21.00;78.80;;;;;;2090010;28;20505;-88
2022/07/31 03:06:50;;;;;;;6.15;2.03;;;21.00;78.80;;;;;;2090479;28;20451;-89
2022/07/31 03:07:50;;;;;;;2.63;1.48;;;21.00;78.80;;;;;;2094803;28;20090;-88
2022/07/31 03:08:51;;;;;;;5.33;2.00;;;20.90;78.70;;;;;;2086475;28;20621;-91
2022/07/31 03:09:56;;;;;;;3.13;1.60;;;21.00;78.90;;;;;;2091681;28;20281;-89
2022/07/31 03:11:26;;;;;;;4.32;1.92;;;20.90;78.60;;;;;;2094270;28;20260;-93
2022/07/31 03:12:27;;;;;;;3.58;1.83;;;20.90;78.50;;;;;;2087877;28;20258;-89
2022/07/31 03:13:30;;;;;;;3.97;1.97;;;21.00;78.90;;;;;;2082519;28;20112;-89
2022/07/31 03:14:33;;;;;;;3.47;2.35;;;21.00;78.80;;;;;;2083622;28;20355;-90
2022/07/31 03:15:37;;;;;;;3.83;1.95;;;21.00;78.60;;;;;;2090235;28;20787;-88
2022/07/31 03:16:41;;;;;;;2.45;1.70;;;21.00;78.70;;;;;;2098857;28;20268;-88
2022/07/31 03:17:44;;;;;;;4.38;1.65;;;20.90;78.60;;;;;;2090643;28;20257;-88
2022/07/31 03:18:49;;;;;;;2.97;1.65;;;20.90;78.80;;;;;;2087922;28;20254;-88
2022/07/31 03:19:51;;;;;;;5.40;1.75;;;20.90;78.90;;;;;;2090682;28;20263;-89
2022/07/31 03:20:53;;;;;;;2.33;1.63;;;20.90;78.80;;;;;;2081863;28;20046;-89
2022/07/31 03:21:55;;;;;;;2.03;1.58;;;20.90;78.70;;;;;;2073769;28;20055;-90
2022/07/31 03:22:58;;;;;;;3.22;2.20;;;20.90;78.80;;;;;;2074311;28;20278;-92
2022/07/31 03:24:00;;;;;;;2.95;2.08;;;20.90;78.80;;;;;;2071842;28;20256;-91
2022/07/31 03:25:03;;;;;;;3.70;1.98;;;20.90;78.80;;;;;;2082377;28;20262;-88
2022/07/31 03:26:05;;;;;;;3.70;1.73;;;20.90;78.80;;;;;;2081870;28;20728;-90
2022/07/31 03:27:05;;;;;;;2.28;1.80;;;20.90;78.80;;;;;;2085157;28;20270;-92
2022/07/31 03:28:07;;;;;;;5.53;2.10;;;20.90;78.80;;;;;;2082437;28;20041;-90
2022/07/31 03:29:08;;;;;;;;;;;20.90;78.80;;;;;;2079674;28;20040;-90
2022/07/31 03:30:18;;;;;;;3.25;1.73;;;20.90;78.80;;;;;;2090580;28;19909;-91
2022/07/31 03:31:20;;;;;;;6.55;2.05;;;20.90;78.80;;;;;;2082448;28;20399;-90
2022/07/31 03:32:21;;;;;;;4.72;1.83;;;20.90;78.80;;;;;;2086737;28;20345;-88
2022/07/31 03:33:22;;;;;;;2.80;1.63;;;20.90;78.80;;;;;;2098670;28;20284;-89
2022/07/31 03:34:24;;;;;;;5.07;2.13;;;20.90;78.70;;;;;;2080953;28;20251;-91
2022/07/31 03:35:27;;;;;;;3.55;1.75;;;20.90;78.80;;;;;;2074188;28;20113;-88
2022/07/31 03:36:30;;;;;;;1.80;1.50;;;20.90;78.70;;;;;;2082936;28;20259;-88
2022/07/31 03:37:31;;;;;;;2.95;2.15;;;20.90;79.00;;;;;;2074771;28;20113;-89
2022/07/31 03:38:33;;;;;;;4.67;1.90;;;20.90;78.70;;;;;;2090694;28;20341;-88
2022/07/31 03:39:36;;;;;;;3.47;1.65;;;20.90;78.90;;;;;;2082666;28;20044;-88
2022/07/31 03:40:41;;;;;;;3.13;1.90;;;20.90;78.90;;;;;;2091096;28;20310;-88
2022/07/31 03:41:42;;;;;;;2.60;1.90;;;20.90;79.10;;;;;;2090500;28;20305;-87
2022/07/31 03:42:44;;;;;;;5.18;2.05;;;20.90;79.20;;;;;;2086945;28;20013;-89
2022/07/31 03:43:46;;;;;;;3.45;1.73;;;20.80;79.30;;;;;;2090542;28;20112;-87
2022/07/31 03:44:48;;;;;;;2.50;1.85;;;20.90;79.30;;;;;;2074510;28;20271;-88
2022/07/31 03:45:51;;;;;;;4.53;1.90;;;20.90;79.10;;;;;;2082182;28;20455;-87
2022/07/31 03:46:52;;;;;;;6.30;1.90;;;20.90;79.10;;;;;;2082597;28;20050;-88
2022/07/31 03:47:53;;;;;;;2.85;1.88;;;20.90;79.10;;;;;;2079442;28;20255;-87
2022/07/31 03:48:54;;;;;;;2.38;1.70;;;20.90;79.10;;;;;;2073140;28;20034;-88
2022/07/31 03:50:00;;;;;;;4.18;1.80;;;20.90;79.10;;;;;;2074834;28;20121;-88
2022/07/31 03:51:01;;;;;;;2.95;1.73;;;20.90;79.00;;;;;;2074703;28;20029;-89
2022/07/31 03:52:04;;;;;;;3.58;1.90;;;20.90;79.00;;;;;;2082892;28;20788;-90
2022/07/31 03:53:06;;;;;;;2.88;1.98;;;20.90;79.00;;;;;;2090368;28;20274;-87
2022/07/31 03:54:09;;;;;;;3.72;1.80;;;20.90;79.00;;;;;;2082602;28;20029;-89
2022/07/31 03:55:16;;;;;;;2.50;1.80;;;20.90;79.10;;;;;;2091046;28;20273;-90
2022/07/31 03:56:18;;;;;;;4.07;1.80;;;20.90;79.10;;;;;;2086751;28;20281;-88
2022/07/31 03:57:20;;;;;;;4.30;2.30;;;20.90;79.00;;;;;;2091069;28;20029;-89
2022/07/31 03:58:21;;;;;;;;;;;20.90;79.10;;;;;;2091715;28;20413;-90
2022/07/31 03:59:24;;;;;;;2.92;1.70;;;20.90;79.10;;;;;;2090197;28;19979;-89
2022/07/31 04:00:26;;;;;;;3.30;1.88;;;20.90;79.10;;;;;;2076060;28;20582;-89
2022/07/31 04:01:29;;;;;;;3.60;2.10;;;20.90;79.10;;;;;;2086603;28;20292;-89
2022/07/31 04:02:32;;;;;;;4.28;1.73;;;20.90;79.10;;;;;;2091339;28;20266;-89
2022/07/31 04:03:38;;;;;;;3.35;1.88;;;20.90;79.20;;;;;;2069272;28;20327;-90
2022/07/31 04:04:53;;;;;;;8.35;2.22;;;20.90;79.20;;;;;;2076775;28;20263;-88
2022/07/31 04:05:54;;;;;;;;;;;20.90;79.40;;;;;;2094404;28;20272;-90
2022/07/31 04:06:56;;;;;;;4.30;1.90;;;20.80;79.50;;;;;;2083886;28;19971;-88
2022/07/31 04:07:58;;;;;;;4.50;1.77;;;20.90;79.60;;;;;;2086182;28;20033;-90
2022/07/31 04:09:00;;;;;;;;;;;20.80;79.60;;;;;;2091868;28;20064;-89
2022/07/31 04:10:02;;;;;;;2.85;1.42;;;20.80;79.70;;;;;;2091888;28;20015;-87
2022/07/31 04:11:04;;;;;;;2.25;1.48;;;20.80;79.60;;;;;;2075903;28;20068;-90
2022/07/31 04:12:05;;;;;;;5.97;1.77;;;20.80;80.00;;;;;;2083969;28;20267;-90
2022/07/31 04:13:06;;;;;;;3.97;2.20;;;20.80;80.20;;;;;;2091807;28;20367;-90
2022/07/31 04:14:07;;;;;;;4.37;2.40;;;20.80;80.40;;;;;;2083550;28;20053;-90
2022/07/31 04:15:08;;;;;;;3.70;1.92;;;20.80;80.70;;;;;;2083665;28;20108;-93
2022/07/31 04:16:09;;;;;;;4.63;2.10;;;20.80;80.80;;;;;;2091593;28;20022;-89
2022/07/31 04:17:11;;;;;;;2.72;2.22;;;20.80;81.00;;;;;;2100236;28;20016;-89
2022/07/31 04:18:12;;;;;;;4.60;2.15;;;20.80;81.20;;;;;;2091777;28;20056;-91
2022/07/31 04:19:16;;;;;;;6.90;2.40;;;20.80;81.20;;;;;;2092770;28;20099;-88
2022/07/31 04:20:17;;;;;;;4.93;2.40;;;20.80;81.40;;;;;;2091814;28;20596;-91
2022/07/31 04:21:19;;;;;;;3.55;2.20;;;20.80;81.60;;;;;;2091987;28;20025;-89
2022/07/31 04:22:20;;;;;;;3.80;2.35;;;20.80;81.60;;;;;;2099626;28;20025;-89
2022/07/31 04:23:21;;;;;;;3.63;1.92;;;20.80;81.50;;;;;;2099955;28;20029;-89
2022/07/31 04:24:40;;;;;;;3.03;2.05;;;20.80;81.50;;;;;;2094734;28;20072;-89
2022/07/31 04:25:59;;;;;;;6.30;2.60;;;20.80;81.60;;;;;;2092132;28;20292;-88
2022/07/31 04:27:17;;;;;;;4.00;2.30;;;20.80;81.60;;;;;;2094570;28;20722;-89
2022/07/31 04:28:18;;;;;;;3.35;2.10;;;20.80;81.80;;;;;;2092610;28;20284;-90
2022/07/31 04:29:18;;;;;;;4.23;2.27;;;20.80;81.70;;;;;;2090984;28;20037;-90
2022/07/31 04:30:20;;;;;;;5.43;2.25;;;20.80;81.80;;;;;;2099785;28;20021;-88
2022/07/31 04:31:21;;;;;;;5.10;2.50;;;20.80;81.90;;;;;;2083859;28;20116;-89
2022/07/31 04:32:23;;;;;;;5.10;1.93;;;20.80;82.00;;;;;;2081917;28;20026;-91
2022/07/31 04:33:27;;;;;;;4.63;2.50;;;20.80;82.00;;;;;;2084456;28;20293;-91
2022/07/31 04:34:28;;;;;;;5.97;2.47;;;20.80;81.90;;;;;;2099913;28;20258;-90
2022/07/31 04:35:29;;;;;;;7.33;2.30;;;20.80;81.90;;;;;;2078636;28;20686;-90
2022/07/31 04:36:30;;;;;;;5.80;2.97;;;20.80;81.90;;;;;;2075208;28;20026;-91
2022/07/31 04:37:32;;;;;;;8.32;2.40;;;20.80;81.90;;;;;;2083516;28;20040;-89
2022/07/31 04:38:33;;;;;;;6.30;2.45;;;20.80;81.80;;;;;;2084930;28;20277;-90
2022/07/31 04:39:35;;;;;;;6.20;2.25;;;20.80;81.90;;;;;;2083484;28;20116;-88
2022/07/31 04:40:36;;;;;;;3.03;1.70;;;20.80;82.00;;;;;;2091611;28;20025;-89
2022/07/31 04:41:37;;;;;;;3.83;2.33;;;20.80;82.10;;;;;;2091577;28;20067;-89
2022/07/31 04:42:38;;;;;;;4.17;1.90;;;20.80;82.20;;;;;;2082244;28;20022;-89
2022/07/31 04:43:38;;;;;;;3.77;2.03;;;20.80;82.30;;;;;;2075153;28;20074;-88
2022/07/31 04:44:39;;;;;;;5.25;2.30;;;20.80;82.30;;;;;;2091735;28;20095;-89
2022/07/31 04:45:41;;;;;;;5.07;2.33;;;20.80;82.40;;;;;;2079401;28;20026;-90
2022/07/31 04:46:42;;;;;;;4.32;2.05;;;20.80;82.40;;;;;;2091755;28;20017;-88
2022/07/31 04:47:43;;;;;;;4.53;2.13;;;20.80;82.60;;;;;;2091658;28;20029;-89
2022/07/31 04:48:44;;;;;;;4.97;2.30;;;20.80;82.60;;;;;;2097538;28;20021;-90
2022/07/31 04:49:45;;;;;;;3.87;1.37;;;20.70;82.70;;;;;;2083485;28;20121;-88
2022/07/31 04:50:49;;;;;;;6.45;2.22;;;20.70;82.70;;;;;;2083629;28;20302;-88
2022/07/31 04:51:51;;;;;;;6.03;2.00;;;20.70;82.90;;;;;;2083794;28;20768;-87
2022/07/31 04:52:52;;;;;;;;;;;20.70;82.80;;;;;;2106872;28;20078;-87
2022/07/31 04:53:53;;;;;;;5.32;2.17;;;20.70;82.70;;;;;;2098173;28;19939;-88
2022/07/31 04:54:58;;;;;;;7.75;2.55;;;20.70;83.00;;;;;;2083907;28;20021;-89
2022/07/31 04:57:20;;;;;;;3.17;2.30;;;20.70;83.00;;;;;;2088337;28;20330;-87
2022/07/31 04:58:21;;;;;;;4.13;2.60;;;20.70;83.00;;;;;;2083257;28;20282;-87
2022/07/31 04:59:23;;;;;;;4.17;2.33;;;20.70;83.00;;;;;;2071638;28;20033;-87
2022/07/31 05:00:24;;;;;;;4.55;2.42;;;20.70;83.10;;;;;;2083410;28;20030;-87
2022/07/31 05:01:25;;;;;;;4.60;2.50;;;20.70;83.10;;;;;;2074941;28;20119;-88
2022/07/31 05:02:25;;;;;;;6.80;2.53;;;20.70;83.20;;;;;;2080354;28;20029;-89
2022/07/31 05:03:26;;;;;;;4.27;2.03;;;20.70;83.00;;;;;;2075113;28;20333;-87
2022/07/31 05:04:27;;;;;;;1.90;1.23;;;20.70;83.20;;;;;;2091576;28;20025;-88
2022/07/31 05:05:28;;;;;;;3.35;2.33;;;20.80;83.30;;;;;;2075009;28;20268;-87
2022/07/31 05:06:49;;;;;;;3.47;2.10;;;20.70;83.40;;;;;;2075055;28;20040;-88
2022/07/31 05:07:50;;;;;;;4.63;2.20;;;20.70;83.40;;;;;;2087947;28;20111;-90
2022/07/31 05:08:58;;;;;;;6.82;2.50;;;20.70;83.50;;;;;;2075530;28;20267;-87
2022/07/31 05:10:00;;;;;;;5.47;2.60;;;20.70;83.70;;;;;;2084692;28;20344;-87
2022/07/31 05:12:20;;;;;;;4.47;2.28;;;20.70;83.80;;;;;;2088088;28;20017;-88
2022/07/31 05:13:21;;;;;;;5.63;2.50;;;20.70;83.60;;;;;;2091364;28;20266;-89
2022/07/31 05:14:22;;;;;;;4.37;2.20;;;20.70;83.40;;;;;;2083072;28;20447;-89
2022/07/31 05:15:22;;;;;;;7.77;2.13;;;20.70;83.40;;;;;;2074029;28;20022;-87
2022/07/31 05:16:25;;;;;;;4.63;2.80;;;20.70;83.30;;;;;;2083039;28;20025;-87
2022/07/31 05:17:26;;;;;;;7.30;2.60;;;20.70;83.30;;;;;;2075302;28;20037;-87
2022/07/31 05:18:59;;;;;;;3.35;1.92;;;20.70;83.30;;;;;;2087781;28;20303;-87
2022/07/31 05:20:18;;;;;;;4.50;2.13;;;20.70;83.20;;;;;;2091489;28;20049;-90
2022/07/31 05:21:45;;;;;;;5.03;2.45;;;20.70;83.30;;;;;;2078567;28;20396;-89
2022/07/31 05:23:07;;;;;;;3.13;2.10;;;20.70;83.30;;;;;;2083527;28;20361;-90
2022/07/31 05:24:27;;;;;;;7.60;2.10;;;20.70;83.50;;;;;;2082806;28;20041;-89
2022/07/31 05:25:53;;;;;;;5.20;2.30;;;20.70;83.40;;;;;;2090694;28;20781;-88
2022/07/31 05:26:54;;;;;;;3.90;2.17;;;20.70;83.70;;;;;;2091210;28;20258;-88
2022/07/31 05:27:55;;;;;;;3.57;2.30;;;20.70;83.70;;;;;;2083070;28;20049;-89
2022/07/31 05:28:58;;;;;;;5.05;2.10;;;20.70;83.70;;;;;;2090186;28;20044;-87
2022/07/31 05:29:59;;;;;;;5.97;2.17;;;20.70;83.60;;;;;;2091059;28;20483;-87
2022/07/31 05:31:00;;;;;;;3.53;2.00;;;20.70;83.80;;;;;;2083093;28;20256;-87
2022/07/31 05:32:01;;;;;;;3.78;2.20;;;20.70;83.80;;;;;;2091193;28;20025;-87
2022/07/31 05:33:05;;;;;;;4.32;1.77;;;20.70;83.90;;;;;;2083432;28;20044;-87
2022/07/31 05:34:06;;;;;;;5.47;2.30;;;20.70;83.90;;;;;;2091578;28;20262;-87
2022/07/31 05:35:08;;;;;;;3.03;2.08;;;20.70;83.90;;;;;;2091023;28;20039;-89
2022/07/31 05:36:10;;;;;;;5.97;2.80;;;20.70;84.10;;;;;;2082627;28;20183;-87